PXE weather

Pista Campeche
Mexicali, Baja California, Mexico

Public forecast

Using degrees Celsius for public forecast. Weather courtesy of forecast.io.

METAR (pilot weather report)

Closest report is General Rodolfo Sánchez Taboada International Airport, 13.2 nm (24.5 km) WNW. Retrieved 2019/08/24 06:41 UTC (1 hour ago):

MMML 240641Z 12013KT 10SM SKC 29/24 A2982

TAF (pilot weather forecast)

Closest forecast is General Rodolfo Sánchez Taboada International Airport, 13.2 nm (24.5 km) WNW. Retrieved 2019/08/24 06:59 UTC (55 minutes ago):

TAF MMML 240452Z 2406/2506 12010KT P6SM SKC FM241800 18012KT P6SM SKC BECMG 2503/2505 20008KT